sensor_id;sensor_type;location;lat;lon;timestamp;P1;durP1;ratioP1;P2;durP2;ratioP2
553;SDS011;59;48.778;9.156;2023-09-18T00:01:50;5.63;;;3.90;;
553;SDS011;59;48.778;9.156;2023-09-18T00:04:16;5.13;;;3.93;;
553;SDS011;59;48.778;9.156;2023-09-18T00:06:41;4.60;;;3.70;;
553;SDS011;59;48.778;9.156;2023-09-18T00:09:07;4.23;;;3.93;;
553;SDS011;59;48.778;9.156;2023-09-18T00:11:36;4.80;;;4.10;;
553;SDS011;59;48.778;9.156;2023-09-18T00:14:03;5.00;;;3.67;;
553;SDS011;59;48.778;9.156;2023-09-18T00:16:29;4.27;;;3.97;;
553;SDS011;59;48.778;9.156;2023-09-18T00:18:55;6.10;;;4.60;;
553;SDS011;59;48.778;9.156;2023-09-18T00:21:21;5.90;;;3.83;;
553;SDS011;59;48.778;9.156;2023-09-18T00:23:46;4.57;;;4.00;;
553;SDS011;59;48.778;9.156;2023-09-18T00:26:12;4.90;;;3.73;;
553;SDS011;59;48.778;9.156;2023-09-18T00:28:38;4.40;;;3.93;;
553;SDS011;59;48.778;9.156;2023-09-18T00:31:03;4.73;;;3.77;;
553;SDS011;59;48.778;9.156;2023-09-18T00:33:29;5.10;;;3.73;;
553;SDS011;59;48.778;9.156;2023-09-18T00:35:55;4.63;;;3.57;;
553;SDS011;59;48.778;9.156;2023-09-18T00:38:20;4.47;;;4.27;;
553;SDS011;59;48.778;9.156;2023-09-18T00:40:46;4.33;;;4.10;;
553;SDS011;59;48.778;9.156;2023-09-18T00:43:12;5.03;;;4.30;;
553;SDS011;59;48.778;9.156;2023-09-18T00:45:42;4.43;;;3.80;;
553;SDS011;59;48.778;9.156;2023-09-18T00:48:10;4.47;;;3.90;;
553;SDS011;59;48.778;9.156;2023-09-18T00:50:36;4.40;;;3.50;;
553;SDS011;59;48.778;9.156;2023-09-18T00:53:02;5.67;;;4.30;;
553;SDS011;59;48.778;9.156;2023-09-18T00:55:28;6.33;;;3.90;;
553;SDS011;59;48.778;9.156;2023-09-18T00:57:55;5.20;;;3.77;;
553;SDS011;59;48.778;9.156;2023-09-18T01:00:21;4.37;;;3.70;;
553;SDS011;59;48.778;9.156;2023-09-18T01:02:47;5.10;;;4.13;;
553;SDS011;59;48.778;9.156;2023-09-18T01:05:13;4.40;;;3.40;;
553;SDS011;59;48.778;9.156;2023-09-18T01:07:41;6.33;;;4.03;;
553;SDS011;59;48.778;9.156;2023-09-18T01:10:07;5.23;;;3.93;;
553;SDS011;59;48.778;9.156;2023-09-18T01:12:40;5.00;;;3.80;;
553;SDS011;59;48.778;9.156;2023-09-18T01:15:26;5.90;;;3.40;;
553;SDS011;59;48.778;9.156;2023-09-18T01:17:54;4.73;;;3.83;;
553;SDS011;59;48.778;9.156;2023-09-18T01:20:20;5.43;;;4.10;;
553;SDS011;59;48.778;9.156;2023-09-18T01:22:45;5.00;;;3.67;;
553;SDS011;59;48.778;9.156;2023-09-18T01:25:11;4.80;;;4.10;;
553;SDS011;59;48.778;9.156;2023-09-18T01:27:37;5.10;;;4.00;;
553;SDS011;59;48.778;9.156;2023-09-18T01:30:03;8.53;;;3.90;;
553;SDS011;59;48.778;9.156;2023-09-18T01:32:30;5.70;;;3.70;;
553;SDS011;59;48.778;9.156;2023-09-18T01:34:57;6.30;;;3.93;;
553;SDS011;59;48.778;9.156;2023-09-18T01:37:26;7.03;;;4.30;;
553;SDS011;59;48.778;9.156;2023-09-18T01:39:53;6.07;;;4.10;;
553;SDS011;59;48.778;9.156;2023-09-18T01:42:22;4.47;;;3.87;;
553;SDS011;59;48.778;9.156;2023-09-18T01:44:48;4.93;;;3.93;;
553;SDS011;59;48.778;9.156;2023-09-18T01:47:16;6.07;;;3.97;;
553;SDS011;59;48.778;9.156;2023-09-18T01:49:43;6.43;;;3.87;;
553;SDS011;59;48.778;9.156;2023-09-18T01:52:09;5.37;;;4.00;;
553;SDS011;59;48.778;9.156;2023-09-18T01:54:35;6.20;;;3.60;;
553;SDS011;59;48.778;9.156;2023-09-18T01:57:01;7.37;;;3.73;;
553;SDS011;59;48.778;9.156;2023-09-18T01:59:28;7.43;;;3.33;;
553;SDS011;59;48.778;9.156;2023-09-18T02:01:53;5.70;;;2.80;;
553;SDS011;59;48.778;9.156;2023-09-18T02:04:19;6.90;;;3.20;;
553;SDS011;59;48.778;9.156;2023-09-18T02:06:46;8.57;;;3.00;;
553;SDS011;59;48.778;9.156;2023-09-18T02:09:12;6.97;;;3.30;;
553;SDS011;59;48.778;9.156;2023-09-18T02:11:39;7.50;;;3.20;;
553;SDS011;59;48.778;9.156;2023-09-18T02:14:06;5.63;;;2.93;;
553;SDS011;59;48.778;9.156;2023-09-18T02:16:36;7.03;;;3.20;;
553;SDS011;59;48.778;9.156;2023-09-18T02:19:03;5.47;;;3.13;;
553;SDS011;59;48.778;9.156;2023-09-18T02:21:29;5.93;;;3.50;;
553;SDS011;59;48.778;9.156;2023-09-18T02:23:55;11.17;;;3.50;;
553;SDS011;59;48.778;9.156;2023-09-18T02:26:21;3.83;;;2.63;;
553;SDS011;59;48.778;9.156;2023-09-18T02:28:48;6.17;;;3.00;;
553;SDS011;59;48.778;9.156;2023-09-18T02:31:13;7.83;;;3.67;;
553;SDS011;59;48.778;9.156;2023-09-18T02:33:39;7.10;;;3.13;;
553;SDS011;59;48.778;9.156;2023-09-18T02:36:05;5.43;;;2.77;;
553;SDS011;59;48.778;9.156;2023-09-18T02:38:32;6.57;;;2.90;;
553;SDS011;59;48.778;9.156;2023-09-18T02:41:00;7.43;;;2.90;;
553;SDS011;59;48.778;9.156;2023-09-18T02:43:26;10.67;;;3.20;;
553;SDS011;59;48.778;9.156;2023-09-18T02:45:52;9.27;;;3.07;;
553;SDS011;59;48.778;9.156;2023-09-18T02:48:18;12.30;;;3.10;;
553;SDS011;59;48.778;9.156;2023-09-18T02:50:44;7.93;;;2.80;;
553;SDS011;59;48.778;9.156;2023-09-18T02:53:17;11.27;;;3.67;;
553;SDS011;59;48.778;9.156;2023-09-18T02:55:44;10.17;;;3.23;;
553;SDS011;59;48.778;9.156;2023-09-18T02:58:11;9.40;;;2.93;;
553;SDS011;59;48.778;9.156;2023-09-18T03:00:43;7.50;;;3.17;;
553;SDS011;59;48.778;9.156;2023-09-18T03:03:11;11.10;;;3.07;;
553;SDS011;59;48.778;9.156;2023-09-18T03:05:37;10.60;;;3.30;;
553;SDS011;59;48.778;9.156;2023-09-18T03:08:04;7.23;;;3.00;;
553;SDS011;59;48.778;9.156;2023-09-18T03:10:37;9.77;;;3.23;;
553;SDS011;59;48.778;9.156;2023-09-18T03:13:07;5.73;;;2.80;;
553;SDS011;59;48.778;9.156;2023-09-18T03:15:35;7.33;;;3.20;;
553;SDS011;59;48.778;9.156;2023-09-18T03:18:02;10.30;;;3.00;;
553;SDS011;59;48.778;9.156;2023-09-18T03:20:29;10.97;;;3.03;;
553;SDS011;59;48.778;9.156;2023-09-18T03:22:55;9.93;;;3.40;;
553;SDS011;59;48.778;9.156;2023-09-18T03:25:23;6.67;;;2.97;;
553;SDS011;59;48.778;9.156;2023-09-18T03:27:52;7.93;;;3.10;;
553;SDS011;59;48.778;9.156;2023-09-18T03:30:19;9.23;;;3.60;;
553;SDS011;59;48.778;9.156;2023-09-18T03:32:45;9.83;;;3.10;;
553;SDS011;59;48.778;9.156;2023-09-18T03:35:13;7.53;;;3.00;;
553;SDS011;59;48.778;9.156;2023-09-18T03:37:45;5.37;;;2.47;;
553;SDS011;59;48.778;9.156;2023-09-18T03:40:14;8.57;;;2.53;;
553;SDS011;59;48.778;9.156;2023-09-18T03:42:41;8.07;;;3.47;;
553;SDS011;59;48.778;9.156;2023-09-18T03:45:07;14.67;;;3.00;;
553;SDS011;59;48.778;9.156;2023-09-18T03:47:37;7.10;;;3.10;;
553;SDS011;59;48.778;9.156;2023-09-18T03:50:10;7.57;;;3.30;;
553;SDS011;59;48.778;9.156;2023-09-18T03:52:36;7.93;;;3.37;;
553;SDS011;59;48.778;9.156;2023-09-18T03:55:03;10.67;;;3.10;;
553;SDS011;59;48.778;9.156;2023-09-18T03:57:30;11.27;;;3.80;;
553;SDS011;59;48.778;9.156;2023-09-18T03:59:55;7.17;;;2.90;;
553;SDS011;59;48.778;9.156;2023-09-18T04:02:21;7.20;;;2.93;;
553;SDS011;59;48.778;9.156;2023-09-18T04:04:49;6.63;;;2.80;;
553;SDS011;59;48.778;9.156;2023-09-18T04:07:15;7.00;;;3.10;;
553;SDS011;59;48.778;9.156;2023-09-18T04:09:44;7.23;;;2.73;;
553;SDS011;59;48.778;9.156;2023-09-18T04:12:10;10.80;;;3.10;;
553;SDS011;59;48.778;9.156;2023-09-18T04:14:36;6.63;;;2.87;;
553;SDS011;59;48.778;9.156;2023-09-18T04:17:02;5.03;;;2.73;;
553;SDS011;59;48.778;9.156;2023-09-18T04:19:28;8.27;;;2.50;;
553;SDS011;59;48.778;9.156;2023-09-18T04:21:54;7.13;;;3.17;;
553;SDS011;59;48.778;9.156;2023-09-18T04:24:20;7.23;;;2.67;;
553;SDS011;59;48.778;9.156;2023-09-18T04:26:45;6.70;;;2.57;;
553;SDS011;59;48.778;9.156;2023-09-18T04:29:11;11.67;;;3.40;;
553;SDS011;59;48.778;9.156;2023-09-18T04:31:37;8.60;;;3.20;;
553;SDS011;59;48.778;9.156;2023-09-18T04:34:05;5.10;;;3.00;;
553;SDS011;59;48.778;9.156;2023-09-18T04:36:31;5.53;;;2.87;;
553;SDS011;59;48.778;9.156;2023-09-18T04:38:58;8.17;;;3.63;;
553;SDS011;59;48.778;9.156;2023-09-18T04:41:24;8.17;;;3.40;;
553;SDS011;59;48.778;9.156;2023-09-18T04:43:49;8.33;;;3.70;;
553;SDS011;59;48.778;9.156;2023-09-18T04:46:16;9.37;;;3.20;;
553;SDS011;59;48.778;9.156;2023-09-18T04:48:41;5.90;;;3.43;;
553;SDS011;59;48.778;9.156;2023-09-18T04:51:07;10.30;;;4.30;;
553;SDS011;59;48.778;9.156;2023-09-18T04:53:33;17.77;;;13.40;;
553;SDS011;59;48.778;9.156;2023-09-18T04:55:58;19.17;;;12.87;;
553;SDS011;59;48.778;9.156;2023-09-18T04:58:25;16.50;;;11.33;;
553;SDS011;59;48.778;9.156;2023-09-18T05:00:55;11.63;;;6.60;;
553;SDS011;59;48.778;9.156;2023-09-18T05:03:21;9.20;;;6.00;;
553;SDS011;59;48.778;9.156;2023-09-18T05:05:47;9.80;;;4.47;;
553;SDS011;59;48.778;9.156;2023-09-18T05:08:13;7.80;;;3.90;;
553;SDS011;59;48.778;9.156;2023-09-18T05:10:39;7.47;;;3.77;;
553;SDS011;59;48.778;9.156;2023-09-18T05:13:05;7.33;;;3.90;;
553;SDS011;59;48.778;9.156;2023-09-18T05:15:30;7.67;;;3.57;;
553;SDS011;59;48.778;9.156;2023-09-18T05:17:57;7.57;;;3.50;;
553;SDS011;59;48.778;9.156;2023-09-18T05:20:24;7.17;;;3.50;;
553;SDS011;59;48.778;9.156;2023-09-18T05:22:51;8.17;;;3.47;;
553;SDS011;59;48.778;9.156;2023-09-18T05:25:23;6.63;;;3.53;;
553;SDS011;59;48.778;9.156;2023-09-18T05:27:51;8.00;;;3.23;;
553;SDS011;59;48.778;9.156;2023-09-18T05:30:23;7.60;;;3.93;;
553;SDS011;59;48.778;9.156;2023-09-18T05:32:53;11.10;;;5.63;;
553;SDS011;59;48.778;9.156;2023-09-18T05:35:19;16.20;;;10.53;;
553;SDS011;59;48.778;9.156;2023-09-18T05:37:46;9.20;;;4.17;;
553;SDS011;59;48.778;9.156;2023-09-18T05:40:12;7.20;;;3.30;;
553;SDS011;59;48.778;9.156;2023-09-18T05:42:39;9.83;;;3.50;;
553;SDS011;59;48.778;9.156;2023-09-18T05:45:08;8.63;;;3.50;;
553;SDS011;59;48.778;9.156;2023-09-18T05:47:34;7.93;;;3.30;;
553;SDS011;59;48.778;9.156;2023-09-18T05:50:04;6.63;;;2.80;;
553;SDS011;59;48.778;9.156;2023-09-18T05:52:33;10.33;;;3.03;;
553;SDS011;59;48.778;9.156;2023-09-18T05:55:00;8.90;;;2.80;;
553;SDS011;59;48.778;9.156;2023-09-18T05:57:26;9.50;;;3.10;;
553;SDS011;59;48.778;9.156;2023-09-18T05:59:53;5.83;;;3.20;;
553;SDS011;59;48.778;9.156;2023-09-18T06:02:22;6.97;;;2.77;;
553;SDS011;59;48.778;9.156;2023-09-18T06:04:49;8.63;;;3.67;;
553;SDS011;59;48.778;9.156;2023-09-18T06:07:26;6.60;;;2.83;;
553;SDS011;59;48.778;9.156;2023-09-18T06:09:52;5.80;;;3.00;;
553;SDS011;59;48.778;9.156;2023-09-18T06:12:17;7.70;;;3.30;;
553;SDS011;59;48.778;9.156;2023-09-18T06:14:43;8.17;;;2.90;;
553;SDS011;59;48.778;9.156;2023-09-18T06:17:10;15.17;;;3.90;;
553;SDS011;59;48.778;9.156;2023-09-18T06:19:35;10.63;;;3.50;;
553;SDS011;59;48.778;9.156;2023-09-18T06:22:01;8.10;;;2.93;;
553;SDS011;59;48.778;9.156;2023-09-18T06:24:27;7.23;;;3.30;;
553;SDS011;59;48.778;9.156;2023-09-18T06:26:53;9.57;;;3.30;;
553;SDS011;59;48.778;9.156;2023-09-18T06:29:19;8.10;;;3.60;;
553;SDS011;59;48.778;9.156;2023-09-18T06:31:45;10.60;;;4.10;;
553;SDS011;59;48.778;9.156;2023-09-18T06:34:11;24.47;;;13.90;;
553;SDS011;59;48.778;9.156;2023-09-18T06:36:37;7.43;;;3.50;;
553;SDS011;59;48.778;9.156;2023-09-18T06:39:03;8.67;;;3.40;;
553;SDS011;59;48.778;9.156;2023-09-18T06:41:28;8.80;;;3.73;;
553;SDS011;59;48.778;9.156;2023-09-18T06:43:54;7.13;;;3.73;;
553;SDS011;59;48.778;9.156;2023-09-18T06:46:20;7.77;;;2.90;;
553;SDS011;59;48.778;9.156;2023-09-18T06:48:45;8.30;;;3.30;;
553;SDS011;59;48.778;9.156;2023-09-18T06:51:14;7.30;;;3.27;;
553;SDS011;59;48.778;9.156;2023-09-18T06:53:40;13.67;;;8.97;;
553;SDS011;59;48.778;9.156;2023-09-18T06:56:06;31.43;;;20.10;;
553;SDS011;59;48.778;9.156;2023-09-18T06:58:31;12.60;;;5.60;;
553;SDS011;59;48.778;9.156;2023-09-18T07:00:57;12.17;;;3.33;;
553;SDS011;59;48.778;9.156;2023-09-18T07:03:23;6.87;;;3.17;;
553;SDS011;59;48.778;9.156;2023-09-18T07:05:49;7.37;;;2.60;;
553;SDS011;59;48.778;9.156;2023-09-18T07:08:14;7.73;;;3.50;;
553;SDS011;59;48.778;9.156;2023-09-18T07:10:44;6.50;;;2.37;;
553;SDS011;59;48.778;9.156;2023-09-18T07:13:10;6.30;;;2.50;;
553;SDS011;59;48.778;9.156;2023-09-18T07:15:36;6.13;;;3.47;;
553;SDS011;59;48.778;9.156;2023-09-18T07:18:02;9.27;;;2.90;;
553;SDS011;59;48.778;9.156;2023-09-18T07:20:28;4.43;;;2.50;;
553;SDS011;59;48.778;9.156;2023-09-18T07:22:55;7.20;;;2.37;;
553;SDS011;59;48.778;9.156;2023-09-18T07:25:21;4.20;;;1.93;;
553;SDS011;59;48.778;9.156;2023-09-18T07:27:46;7.50;;;2.83;;
553;SDS011;59;48.778;9.156;2023-09-18T07:30:12;5.30;;;2.63;;
553;SDS011;59;48.778;9.156;2023-09-18T07:32:44;4.70;;;2.03;;
553;SDS011;59;48.778;9.156;2023-09-18T07:35:11;6.43;;;1.90;;
553;SDS011;59;48.778;9.156;2023-09-18T07:37:38;4.73;;;2.00;;
553;SDS011;59;48.778;9.156;2023-09-18T07:40:07;2.80;;;1.70;;
553;SDS011;59;48.778;9.156;2023-09-18T07:42:33;3.50;;;2.30;;
553;SDS011;59;48.778;9.156;2023-09-18T07:45:00;5.83;;;1.80;;
553;SDS011;59;48.778;9.156;2023-09-18T07:47:26;6.57;;;1.80;;
553;SDS011;59;48.778;9.156;2023-09-18T07:49:51;3.93;;;1.70;;
553;SDS011;59;48.778;9.156;2023-09-18T07:52:19;5.50;;;2.10;;
553;SDS011;59;48.778;9.156;2023-09-18T07:54:45;5.80;;;2.27;;
553;SDS011;59;48.778;9.156;2023-09-18T07:57:11;4.60;;;1.43;;
553;SDS011;59;48.778;9.156;2023-09-18T07:59:36;4.37;;;1.50;;
553;SDS011;59;48.778;9.156;2023-09-18T08:02:04;2.90;;;1.60;;
553;SDS011;59;48.778;9.156;2023-09-18T08:04:33;2.67;;;1.40;;
553;SDS011;59;48.778;9.156;2023-09-18T08:06:59;5.47;;;1.47;;
553;SDS011;59;48.778;9.156;2023-09-18T08:09:25;2.80;;;1.33;;
553;SDS011;59;48.778;9.156;2023-09-18T08:11:51;4.60;;;1.70;;
553;SDS011;59;48.778;9.156;2023-09-18T08:14:20;3.00;;;1.40;;
553;SDS011;59;48.778;9.156;2023-09-18T08:16:49;2.70;;;1.47;;
553;SDS011;59;48.778;9.156;2023-09-18T08:19:22;3.60;;;1.60;;
553;SDS011;59;48.778;9.156;2023-09-18T08:21:48;2.80;;;1.63;;
553;SDS011;59;48.778;9.156;2023-09-18T08:24:14;6.83;;;1.70;;
553;SDS011;59;48.778;9.156;2023-09-18T08:26:39;2.57;;;1.30;;
553;SDS011;59;48.778;9.156;2023-09-18T08:29:05;4.73;;;1.73;;
553;SDS011;59;48.778;9.156;2023-09-18T08:31:31;3.90;;;1.33;;
553;SDS011;59;48.778;9.156;2023-09-18T08:33:57;4.03;;;1.50;;
553;SDS011;59;48.778;9.156;2023-09-18T08:36:23;3.43;;;1.53;;
553;SDS011;59;48.778;9.156;2023-09-18T08:38:48;4.33;;;1.60;;
553;SDS011;59;48.778;9.156;2023-09-18T08:41:14;8.40;;;1.80;;
553;SDS011;59;48.778;9.156;2023-09-18T08:43:44;5.27;;;1.80;;
553;SDS011;59;48.778;9.156;2023-09-18T08:46:10;4.03;;;1.70;;
553;SDS011;59;48.778;9.156;2023-09-18T08:48:36;2.70;;;1.90;;
553;SDS011;59;48.778;9.156;2023-09-18T08:51:02;3.47;;;1.60;;
553;SDS011;59;48.778;9.156;2023-09-18T08:53:34;3.83;;;1.90;;
553;SDS011;59;48.778;9.156;2023-09-18T08:56:01;5.47;;;1.70;;
553;SDS011;59;48.778;9.156;2023-09-18T08:58:28;13.17;;;4.60;;
553;SDS011;59;48.778;9.156;2023-09-18T09:01:05;6.07;;;3.53;;
553;SDS011;59;48.778;9.156;2023-09-18T09:03:35;3.73;;;1.50;;
553;SDS011;59;48.778;9.156;2023-09-18T09:06:04;4.30;;;1.80;;
553;SDS011;59;48.778;9.156;2023-09-18T09:08:31;3.57;;;1.50;;
553;SDS011;59;48.778;9.156;2023-09-18T09:11:02;2.20;;;1.20;;
553;SDS011;59;48.778;9.156;2023-09-18T09:13:28;1.97;;;1.20;;
553;SDS011;59;48.778;9.156;2023-09-18T09:15:54;2.90;;;1.50;;
553;SDS011;59;48.778;9.156;2023-09-18T09:18:25;3.70;;;1.63;;
553;SDS011;59;48.778;9.156;2023-09-18T09:21:02;3.17;;;1.97;;
553;SDS011;59;48.778;9.156;2023-09-18T09:23:48;4.30;;;2.00;;
553;SDS011;59;48.778;9.156;2023-09-18T09:26:18;2.70;;;2.00;;
553;SDS011;59;48.778;9.156;2023-09-18T09:28:45;3.90;;;2.30;;
553;SDS011;59;48.778;9.156;2023-09-18T09:31:11;3.77;;;1.70;;
553;SDS011;59;48.778;9.156;2023-09-18T09:33:51;3.80;;;1.47;;
553;SDS011;59;48.778;9.156;2023-09-18T09:36:24;4.70;;;1.70;;
553;SDS011;59;48.778;9.156;2023-09-18T09:38:56;3.20;;;1.57;;
553;SDS011;59;48.778;9.156;2023-09-18T09:41:23;4.00;;;1.63;;
553;SDS011;59;48.778;9.156;2023-09-18T09:43:48;2.93;;;1.60;;
553;SDS011;59;48.778;9.156;2023-09-18T09:46:16;2.80;;;1.53;;
553;SDS011;59;48.778;9.156;2023-09-18T09:49:01;4.03;;;1.70;;
553;SDS011;59;48.778;9.156;2023-09-18T09:51:30;4.50;;;1.90;;
553;SDS011;59;48.778;9.156;2023-09-18T09:53:56;4.53;;;2.60;;
553;SDS011;59;48.778;9.156;2023-09-18T09:56:39;11.37;;;7.73;;
553;SDS011;59;48.778;9.156;2023-09-18T09:59:05;9.67;;;6.20;;
553;SDS011;59;48.778;9.156;2023-09-18T10:01:34;5.77;;;3.67;;
553;SDS011;59;48.778;9.156;2023-09-18T10:04:03;5.50;;;2.93;;
553;SDS011;59;48.778;9.156;2023-09-18T10:06:34;2.97;;;2.10;;
553;SDS011;59;48.778;9.156;2023-09-18T10:09:03;5.37;;;2.40;;
553;SDS011;59;48.778;9.156;2023-09-18T10:11:31;5.73;;;2.07;;
553;SDS011;59;48.778;9.156;2023-09-18T10:14:04;4.27;;;1.80;;
553;SDS011;59;48.778;9.156;2023-09-18T10:16:37;5.17;;;2.30;;
553;SDS011;59;48.778;9.156;2023-09-18T10:21:35;4.83;;;2.57;;
553;SDS011;59;48.778;9.156;2023-09-18T10:24:24;5.23;;;2.53;;
553;SDS011;59;48.778;9.156;2023-09-18T10:26:53;5.13;;;2.00;;
553;SDS011;59;48.778;9.156;2023-09-18T10:29:21;3.83;;;2.27;;
553;SDS011;59;48.778;9.156;2023-09-18T10:31:49;3.30;;;1.87;;
553;SDS011;59;48.778;9.156;2023-09-18T10:34:19;5.40;;;1.97;;
553;SDS011;59;48.778;9.156;2023-09-18T10:36:49;6.33;;;2.20;;
553;SDS011;59;48.778;9.156;2023-09-18T10:39:16;3.07;;;1.83;;
553;SDS011;59;48.778;9.156;2023-09-18T10:41:49;4.60;;;2.50;;
553;SDS011;59;48.778;9.156;2023-09-18T10:44:16;3.07;;;1.73;;
553;SDS011;59;48.778;9.156;2023-09-18T10:46:47;4.70;;;2.27;;
553;SDS011;59;48.778;9.156;2023-09-18T10:49:14;3.93;;;1.70;;
553;SDS011;59;48.778;9.156;2023-09-18T10:51:42;3.67;;;2.00;;
553;SDS011;59;48.778;9.156;2023-09-18T10:54:09;3.80;;;1.90;;
553;SDS011;59;48.778;9.156;2023-09-18T10:56:36;3.40;;;1.77;;
553;SDS011;59;48.778;9.156;2023-09-18T10:59:03;5.50;;;2.13;;
553;SDS011;59;48.778;9.156;2023-09-18T11:01:32;6.10;;;2.23;;
553;SDS011;59;48.778;9.156;2023-09-18T11:04:02;4.20;;;2.00;;
553;SDS011;59;48.778;9.156;2023-09-18T11:06:39;4.40;;;1.83;;
553;SDS011;59;48.778;9.156;2023-09-18T11:09:24;3.50;;;2.37;;
553;SDS011;59;48.778;9.156;2023-09-18T11:14:47;4.80;;;2.43;;
553;SDS011;59;48.778;9.156;2023-09-18T11:17:57;6.47;;;3.20;;
553;SDS011;59;48.778;9.156;2023-09-18T11:22:39;3.30;;;2.03;;
553;SDS011;59;48.778;9.156;2023-09-18T11:28:13;3.23;;;1.73;;
553;SDS011;59;48.778;9.156;2023-09-18T11:30:48;4.30;;;2.13;;
553;SDS011;59;48.778;9.156;2023-09-18T11:33:55;3.23;;;1.67;;
553;SDS011;59;48.778;9.156;2023-09-18T11:39:00;4.63;;;1.97;;
553;SDS011;59;48.778;9.156;2023-09-18T11:41:29;2.57;;;1.30;;
553;SDS011;59;48.778;9.156;2023-09-18T11:44:42;5.77;;;2.00;;
553;SDS011;59;48.778;9.156;2023-09-18T11:46:45;4.83;;;1.90;;
553;SDS011;59;48.778;9.156;2023-09-18T11:49:13;3.27;;;1.63;;
553;SDS011;59;48.778;9.156;2023-09-18T11:51:39;6.10;;;1.77;;
553;SDS011;59;48.778;9.156;2023-09-18T11:54:06;5.53;;;1.80;;
553;SDS011;59;48.778;9.156;2023-09-18T11:56:33;2.80;;;1.53;;
553;SDS011;59;48.778;9.156;2023-09-18T11:58:58;3.13;;;1.90;;
553;SDS011;59;48.778;9.156;2023-09-18T12:01:25;4.63;;;1.80;;
553;SDS011;59;48.778;9.156;2023-09-18T12:04:02;4.50;;;1.97;;
553;SDS011;59;48.778;9.156;2023-09-18T12:06:34;2.67;;;2.00;;
553;SDS011;59;48.778;9.156;2023-09-18T12:09:03;4.00;;;1.90;;
553;SDS011;59;48.778;9.156;2023-09-18T12:11:29;3.90;;;1.80;;
553;SDS011;59;48.778;9.156;2023-09-18T12:13:55;2.30;;;1.60;;
553;SDS011;59;48.778;9.156;2023-09-18T12:16:23;4.10;;;2.40;;
553;SDS011;59;48.778;9.156;2023-09-18T12:18:49;3.10;;;1.87;;
553;SDS011;59;48.778;9.156;2023-09-18T12:21:15;2.47;;;1.80;;
553;SDS011;59;48.778;9.156;2023-09-18T12:23:43;2.43;;;1.80;;
553;SDS011;59;48.778;9.156;2023-09-18T12:26:13;3.10;;;1.57;;
553;SDS011;59;48.778;9.156;2023-09-18T12:28:40;4.20;;;2.10;;
553;SDS011;59;48.778;9.156;2023-09-18T12:31:10;3.90;;;1.80;;
553;SDS011;59;48.778;9.156;2023-09-18T12:33:39;3.87;;;1.97;;
553;SDS011;59;48.778;9.156;2023-09-18T12:36:06;4.17;;;2.80;;
553;SDS011;59;48.778;9.156;2023-09-18T12:38:33;9.67;;;6.03;;
553;SDS011;59;48.778;9.156;2023-09-18T12:40:59;4.97;;;3.27;;
553;SDS011;59;48.778;9.156;2023-09-18T12:43:37;2.60;;;2.10;;
553;SDS011;59;48.778;9.156;2023-09-18T12:46:07;2.33;;;1.90;;
553;SDS011;59;48.778;9.156;2023-09-18T12:48:37;2.53;;;1.73;;
553;SDS011;59;48.778;9.156;2023-09-18T12:51:07;3.10;;;1.73;;
553;SDS011;59;48.778;9.156;2023-09-18T12:53:33;2.70;;;1.80;;
553;SDS011;59;48.778;9.156;2023-09-18T12:56:09;3.00;;;1.70;;
553;SDS011;59;48.778;9.156;2023-09-18T12:58:37;1.93;;;1.50;;
553;SDS011;59;48.778;9.156;2023-09-18T13:01:09;3.40;;;1.77;;
553;SDS011;59;48.778;9.156;2023-09-18T13:03:46;3.17;;;1.70;;
553;SDS011;59;48.778;9.156;2023-09-18T13:06:17;4.33;;;1.93;;
553;SDS011;59;48.778;9.156;2023-09-18T13:08:43;4.43;;;1.67;;
553;SDS011;59;48.778;9.156;2023-09-18T13:11:09;2.53;;;1.50;;
553;SDS011;59;48.778;9.156;2023-09-18T13:13:39;3.33;;;1.37;;
553;SDS011;59;48.778;9.156;2023-09-18T13:16:06;3.57;;;1.90;;
553;SDS011;59;48.778;9.156;2023-09-18T13:18:36;2.00;;;1.60;;
553;SDS011;59;48.778;9.156;2023-09-18T13:21:11;2.63;;;1.43;;
553;SDS011;59;48.778;9.156;2023-09-18T13:23:38;2.73;;;1.90;;
553;SDS011;59;48.778;9.156;2023-09-18T13:26:04;1.80;;;1.23;;
553;SDS011;59;48.778;9.156;2023-09-18T13:28:32;2.00;;;1.50;;
553;SDS011;59;48.778;9.156;2023-09-18T13:31:00;2.80;;;1.60;;
553;SDS011;59;48.778;9.156;2023-09-18T13:33:33;2.60;;;1.50;;
553;SDS011;59;48.778;9.156;2023-09-18T13:36:03;5.77;;;2.00;;
553;SDS011;59;48.778;9.156;2023-09-18T13:38:29;3.87;;;1.60;;
553;SDS011;59;48.778;9.156;2023-09-18T13:40:55;3.47;;;1.50;;
553;SDS011;59;48.778;9.156;2023-09-18T13:43:21;2.77;;;1.50;;
553;SDS011;59;48.778;9.156;2023-09-18T13:45:47;3.60;;;2.03;;
553;SDS011;59;48.778;9.156;2023-09-18T13:48:16;5.40;;;1.87;;
553;SDS011;59;48.778;9.156;2023-09-18T13:50:42;2.60;;;1.57;;
553;SDS011;59;48.778;9.156;2023-09-18T13:53:08;3.33;;;1.40;;
553;SDS011;59;48.778;9.156;2023-09-18T13:55:34;2.23;;;1.50;;
553;SDS011;59;48.778;9.156;2023-09-18T13:58:00;3.13;;;1.60;;
553;SDS011;59;48.778;9.156;2023-09-18T14:00:29;3.27;;;1.60;;
553;SDS011;59;48.778;9.156;2023-09-18T14:02:55;3.10;;;1.50;;
553;SDS011;59;48.778;9.156;2023-09-18T14:05:21;3.53;;;1.70;;
553;SDS011;59;48.778;9.156;2023-09-18T14:07:47;6.30;;;1.70;;
553;SDS011;59;48.778;9.156;2023-09-18T14:10:13;11.97;;;7.60;;
553;SDS011;59;48.778;9.156;2023-09-18T14:12:39;5.53;;;2.73;;
553;SDS011;59;48.778;9.156;2023-09-18T14:15:06;4.30;;;1.70;;
553;SDS011;59;48.778;9.156;2023-09-18T14:17:32;5.17;;;1.37;;
553;SDS011;59;48.778;9.156;2023-09-18T14:19:59;3.20;;;1.87;;
553;SDS011;59;48.778;9.156;2023-09-18T14:22:25;3.20;;;1.77;;
553;SDS011;59;48.778;9.156;2023-09-18T14:24:51;3.10;;;1.60;;
553;SDS011;59;48.778;9.156;2023-09-18T14:27:17;1.90;;;1.70;;
553;SDS011;59;48.778;9.156;2023-09-18T14:29:42;4.03;;;1.40;;
553;SDS011;59;48.778;9.156;2023-09-18T14:32:08;2.37;;;1.57;;
553;SDS011;59;48.778;9.156;2023-09-18T14:34:35;2.80;;;1.70;;
553;SDS011;59;48.778;9.156;2023-09-18T14:37:03;4.13;;;1.90;;
553;SDS011;59;48.778;9.156;2023-09-18T14:39:32;3.33;;;1.90;;
553;SDS011;59;48.778;9.156;2023-09-18T14:41:59;2.80;;;1.57;;
553;SDS011;59;48.778;9.156;2023-09-18T14:44:25;4.90;;;2.00;;
553;SDS011;59;48.778;9.156;2023-09-18T14:46:55;4.03;;;1.50;;
553;SDS011;59;48.778;9.156;2023-09-18T14:49:21;4.03;;;1.70;;
553;SDS011;59;48.778;9.156;2023-09-18T14:51:47;4.47;;;1.30;;
553;SDS011;59;48.778;9.156;2023-09-18T14:54:14;2.83;;;1.80;;
553;SDS011;59;48.778;9.156;2023-09-18T14:56:40;4.60;;;1.40;;
553;SDS011;59;48.778;9.156;2023-09-18T14:59:06;3.70;;;1.50;;
553;SDS011;59;48.778;9.156;2023-09-18T15:01:32;1.90;;;1.37;;
553;SDS011;59;48.778;9.156;2023-09-18T15:03:58;3.83;;;1.63;;
553;SDS011;59;48.778;9.156;2023-09-18T15:06:24;3.73;;;1.60;;
553;SDS011;59;48.778;9.156;2023-09-18T15:08:51;1.90;;;1.40;;
553;SDS011;59;48.778;9.156;2023-09-18T15:11:17;2.60;;;1.40;;
553;SDS011;59;48.778;9.156;2023-09-18T15:13:44;2.17;;;1.47;;
553;SDS011;59;48.778;9.156;2023-09-18T15:16:10;2.17;;;1.50;;
553;SDS011;59;48.778;9.156;2023-09-18T15:18:36;1.97;;;1.60;;
553;SDS011;59;48.778;9.156;2023-09-18T15:21:02;3.57;;;1.50;;
553;SDS011;59;48.778;9.156;2023-09-18T15:23:28;3.10;;;1.60;;
553;SDS011;59;48.778;9.156;2023-09-18T15:25:55;2.30;;;1.33;;
553;SDS011;59;48.778;9.156;2023-09-18T15:28:21;5.40;;;1.70;;
553;SDS011;59;48.778;9.156;2023-09-18T15:30:52;2.80;;;1.50;;
553;SDS011;59;48.778;9.156;2023-09-18T15:33:18;2.63;;;1.23;;
553;SDS011;59;48.778;9.156;2023-09-18T15:35:46;5.00;;;2.13;;
553;SDS011;59;48.778;9.156;2023-09-18T15:38:12;2.57;;;1.90;;
553;SDS011;59;48.778;9.156;2023-09-18T15:40:37;3.70;;;1.80;;
553;SDS011;59;48.778;9.156;2023-09-18T15:43:03;2.90;;;1.40;;
553;SDS011;59;48.778;9.156;2023-09-18T15:45:29;4.60;;;1.40;;
553;SDS011;59;48.778;9.156;2023-09-18T15:47:56;3.33;;;1.77;;
553;SDS011;59;48.778;9.156;2023-09-18T15:50:21;2.70;;;1.70;;
553;SDS011;59;48.778;9.156;2023-09-18T15:52:47;4.17;;;1.57;;
553;SDS011;59;48.778;9.156;2023-09-18T15:55:13;3.13;;;1.50;;
553;SDS011;59;48.778;9.156;2023-09-18T15:57:39;1.80;;;1.47;;
553;SDS011;59;48.778;9.156;2023-09-18T16:00:06;3.30;;;1.67;;
553;SDS011;59;48.778;9.156;2023-09-18T16:02:32;3.27;;;1.40;;
553;SDS011;59;48.778;9.156;2023-09-18T16:05:02;4.80;;;2.03;;
553;SDS011;59;48.778;9.156;2023-09-18T16:07:32;8.17;;;4.03;;
553;SDS011;59;48.778;9.156;2023-09-18T16:10:00;3.10;;;1.73;;
553;SDS011;59;48.778;9.156;2023-09-18T16:12:26;2.00;;;1.37;;
553;SDS011;59;48.778;9.156;2023-09-18T16:14:53;4.00;;;1.80;;
553;SDS011;59;48.778;9.156;2023-09-18T16:17:19;3.33;;;1.70;;